createdAt,value
2022-11-15T00:00:39.657Z,24.55
2022-11-15T00:03:29.100Z,24.02
2022-11-15T00:06:19.570Z,23.83
2022-11-15T00:09:07.360Z,23.50
2022-11-15T00:11:57.454Z,23.15
2022-11-15T00:14:45.877Z,21.92
2022-11-15T00:17:33.857Z,23.63
2022-11-15T00:20:22.404Z,23.25
2022-11-15T00:23:10.956Z,22.15
2022-11-15T00:25:59.901Z,22.08
2022-11-15T00:28:47.619Z,21.08
2022-11-15T00:31:35.371Z,22.25
2022-11-15T00:34:25.994Z,20.33
2022-11-15T00:37:14.072Z,22.52
2022-11-15T00:40:04.880Z,21.60
2022-11-15T00:42:53.536Z,21.52
2022-11-15T00:45:41.312Z,21.25
2022-11-15T00:48:30.075Z,21.65
2022-11-15T00:51:17.877Z,22.52
2022-11-15T00:54:07.893Z,22.75
2022-11-15T00:56:58.172Z,23.10
2022-11-15T00:59:45.885Z,22.23
2022-11-15T01:02:34.476Z,23.73
2022-11-15T01:05:22.733Z,23.13
2022-11-15T01:08:16.270Z,23.65
2022-11-15T01:13:56.648Z,24.05
2022-11-15T01:16:44.796Z,22.90
2022-11-15T01:19:33.224Z,21.63
2022-11-15T01:22:21.364Z,23.30
2022-11-15T01:25:10.037Z,22.95
2022-11-15T01:27:57.869Z,23.50
2022-11-15T01:30:45.851Z,22.80
2022-11-15T01:33:37.704Z,22.80
2022-11-15T01:36:26.039Z,22.90
2022-11-15T01:39:14.883Z,22.00
2022-11-15T01:42:02.898Z,22.38
2022-11-15T01:44:53.019Z,22.40
2022-11-15T01:47:45.226Z,21.90
2022-11-15T01:50:34.443Z,23.25
2022-11-15T01:53:25.798Z,22.75
2022-11-15T01:56:19.524Z,21.50
2022-11-15T01:59:09.679Z,22.08
2022-11-15T02:01:58.226Z,21.52
2022-11-15T02:04:48.536Z,22.30
2022-11-15T02:07:37.242Z,21.67
2022-11-15T02:10:26.464Z,21.98
2022-11-15T02:13:16.609Z,22.98
2022-11-15T02:16:35.834Z,22.95
2022-11-15T02:19:40.335Z,21.58
2022-11-15T02:22:50.220Z,21.95
2022-11-15T02:25:56.650Z,21.98
2022-11-15T02:28:49.183Z,22.13
2022-11-15T02:32:10.751Z,21.83
2022-11-15T02:35:07.576Z,23.00
2022-11-15T02:38:06.107Z,22.77
2022-11-15T02:40:55.751Z,21.50
2022-11-15T02:43:58.635Z,21.90
2022-11-15T02:47:08.483Z,22.00
2022-11-15T02:50:01.712Z,21.98
2022-11-15T02:52:50.709Z,22.13
2022-11-15T02:55:50.198Z,21.75
2022-11-15T02:58:59.716Z,22.13
2022-11-15T03:02:14.123Z,21.95
2022-11-15T03:05:10.269Z,22.13
2022-11-15T03:08:07.096Z,20.38
2022-11-15T03:11:12.817Z,22.15
2022-11-15T03:14:09.269Z,20.95
2022-11-15T03:17:04.821Z,20.17
2022-11-15T03:19:55.579Z,20.08
2022-11-15T03:22:46.434Z,20.98
2022-11-15T03:25:36.481Z,22.02
2022-11-15T03:28:32.984Z,21.98
2022-11-15T03:31:30.549Z,20.58
2022-11-15T03:34:50.359Z,20.55
2022-11-15T03:37:55.450Z,21.00
2022-11-15T03:40:49.104Z,20.90
2022-11-15T03:43:51.093Z,21.75
2022-11-15T03:46:48.913Z,21.60
2022-11-15T03:49:45.321Z,20.90
2022-11-15T03:52:35.591Z,20.15
2022-11-15T03:55:24.347Z,21.73
2022-11-15T03:58:12.482Z,20.25
2022-11-15T04:01:00.707Z,20.42
2022-11-15T04:03:48.515Z,20.17
2022-11-15T04:06:37.049Z,19.98
2022-11-15T04:09:24.955Z,20.27
2022-11-15T04:12:13.696Z,19.13
2022-11-15T04:15:10.846Z,18.75
2022-11-15T04:17:59.596Z,19.08
2022-11-15T04:21:03.295Z,19.35
2022-11-15T04:23:54.769Z,20.08
2022-11-15T04:26:43.257Z,20.45
2022-11-15T04:29:36.643Z,20.38
2022-11-15T04:32:24.342Z,19.63
2022-11-15T04:35:13.043Z,20.52
2022-11-15T04:38:01.272Z,20.73
2022-11-15T04:40:49.367Z,19.95
2022-11-15T04:43:39.559Z,19.40
2022-11-15T04:46:28.329Z,21.23
2022-11-15T04:49:16.813Z,20.92
2022-11-15T04:52:05.025Z,19.70
2022-11-15T04:54:53.471Z,20.48
2022-11-15T04:57:41.319Z,21.70
2022-11-15T05:00:30.408Z,21.67
2022-11-15T05:03:34.316Z,20.77
2022-11-15T05:06:22.978Z,20.48
2022-11-15T05:09:10.917Z,22.25
2022-11-15T05:11:59.288Z,20.58
2022-11-15T05:14:47.319Z,20.77
2022-11-15T05:17:35.295Z,20.48
2022-11-15T05:20:23.696Z,19.73
2022-11-15T05:23:11.595Z,20.83
2022-11-15T05:26:06.430Z,20.98
2022-11-15T05:29:01.039Z,20.58
2022-11-15T05:31:49.105Z,20.25
2022-11-15T05:34:37.535Z,20.80
2022-11-15T05:37:25.442Z,22.60
2022-11-15T05:40:13.500Z,21.40
2022-11-15T05:43:06.407Z,20.40
2022-11-15T05:45:58.088Z,20.92
2022-11-15T05:48:53.877Z,21.88
2022-11-15T05:51:44.845Z,22.20
2022-11-15T05:54:34.079Z,21.90
2022-11-15T05:57:22.738Z,21.05
2022-11-15T06:00:11.698Z,22.70
2022-11-15T06:02:59.430Z,25.98
2022-11-15T06:05:47.577Z,27.98
2022-11-15T06:08:35.756Z,26.42
2022-11-15T06:11:26.217Z,23.95
2022-11-15T06:14:13.969Z,23.67
2022-11-15T06:17:03.248Z,23.83
2022-11-15T06:19:53.458Z,23.65
2022-11-15T06:22:43.919Z,21.88
2022-11-15T06:25:33.257Z,23.80
2022-11-15T06:28:21.812Z,23.58
2022-11-15T06:31:12.910Z,23.45
2022-11-15T06:34:00.651Z,24.65
2022-11-15T06:36:49.272Z,24.02
2022-11-15T06:39:37.657Z,24.38
2022-11-15T06:42:26.136Z,24.25
2022-11-15T06:45:14.124Z,27.27
2022-11-15T06:48:02.534Z,27.00
2022-11-15T06:50:54.934Z,26.48
2022-11-15T06:53:42.544Z,27.52
2022-11-15T06:56:30.766Z,26.55
2022-11-15T06:59:18.606Z,26.52
2022-11-15T07:02:07.024Z,61.97
2022-11-15T07:04:57.775Z,32.42
2022-11-15T07:07:53.854Z,29.58
2022-11-15T07:10:43.870Z,29.17
2022-11-15T07:13:35.305Z,33.22
2022-11-15T07:16:23.726Z,31.15
2022-11-15T07:19:12.733Z,30.70
2022-11-15T07:22:00.480Z,32.65
2022-11-15T07:24:50.875Z,35.75
2022-11-15T07:27:40.334Z,37.30
2022-11-15T07:30:31.486Z,33.95
2022-11-15T07:33:19.169Z,32.83
2022-11-15T07:36:08.618Z,33.22
2022-11-15T07:38:59.421Z,32.10
2022-11-15T07:41:51.830Z,30.15
2022-11-15T07:44:39.534Z,30.92
2022-11-15T07:47:30.472Z,29.55
2022-11-15T07:50:19.249Z,30.75
2022-11-15T07:53:07.503Z,32.58
2022-11-15T07:55:58.257Z,34.30
2022-11-15T07:58:47.924Z,33.22
2022-11-15T08:01:36.053Z,33.03
2022-11-15T08:04:24.120Z,34.30
2022-11-15T08:07:14.760Z,34.92
2022-11-15T08:10:02.977Z,34.03
2022-11-15T08:13:00.852Z,33.00
2022-11-15T08:15:52.261Z,32.97
2022-11-15T08:18:46.385Z,33.42
2022-11-15T08:21:34.904Z,33.33
2022-11-15T08:24:23.363Z,32.95
2022-11-15T08:27:17.661Z,32.92
2022-11-15T08:30:06.345Z,34.05
2022-11-15T08:32:58.710Z,34.72
2022-11-15T08:35:47.064Z,33.55
2022-11-15T08:38:36.138Z,32.03
2022-11-15T08:41:32.563Z,35.78
2022-11-15T08:44:21.487Z,32.35
2022-11-15T08:47:12.308Z,35.42
2022-11-15T08:50:01.045Z,33.97
2022-11-15T08:52:49.627Z,34.08
2022-11-15T08:55:39.543Z,34.50
2022-11-15T08:58:27.704Z,32.30
2022-11-15T09:01:20.308Z,35.20
2022-11-15T09:04:09.226Z,35.80
2022-11-15T09:06:58.268Z,39.50
2022-11-15T09:09:46.549Z,37.88
2022-11-15T09:12:35.451Z,40.05
2022-11-15T09:15:23.689Z,38.35
2022-11-15T09:18:12.250Z,36.42
2022-11-15T09:21:01.503Z,37.65
2022-11-15T09:23:53.340Z,37.08
2022-11-15T09:26:41.728Z,37.00
2022-11-15T09:29:31.538Z,33.22
2022-11-15T09:32:20.058Z,34.88
2022-11-15T09:35:08.742Z,32.70
2022-11-15T09:37:59.442Z,32.75
2022-11-15T09:40:55.529Z,34.25
2022-11-15T09:44:14.018Z,35.95
2022-11-15T09:47:28.901Z,36.70
2022-11-15T09:50:31.379Z,33.38
2022-11-15T09:53:05.540Z,35.47
2022-11-15T09:55:56.892Z,38.90
2022-11-15T09:58:42.287Z,35.20
2022-11-15T10:01:38.594Z,34.92
2022-11-15T10:06:54.798Z,35.20
2022-11-15T10:09:41.621Z,34.58
2022-11-15T10:12:15.445Z,34.72
2022-11-15T10:14:54.419Z,38.00
2022-11-15T10:17:47.313Z,36.00
2022-11-15T10:20:25.146Z,35.15
2022-11-15T10:23:01.651Z,34.75
2022-11-15T10:25:36.469Z,36.30
2022-11-15T10:28:16.356Z,37.40
2022-11-15T10:30:56.197Z,36.58
2022-11-15T10:33:37.856Z,34.03
2022-11-15T10:36:15.008Z,38.90
2022-11-15T10:38:51.685Z,40.00
2022-11-15T10:41:29.378Z,37.70
2022-11-15T10:44:08.657Z,37.63
2022-11-15T10:46:47.220Z,37.00
2022-11-15T10:49:30.643Z,33.97
2022-11-15T10:52:20.900Z,38.22
2022-11-15T10:55:08.289Z,38.70
2022-11-15T10:57:49.930Z,43.67
2022-11-15T11:00:40.820Z,48.15
2022-11-15T11:03:30.630Z,39.30
2022-11-15T11:06:08.313Z,36.55
2022-11-15T11:08:41.911Z,36.33
2022-11-15T11:11:15.575Z,39.40
2022-11-15T11:13:52.007Z,36.38
2022-11-15T11:16:43.147Z,39.95
2022-11-15T11:19:34.245Z,38.47
2022-11-15T11:22:26.953Z,37.13
2022-11-15T11:25:14.208Z,35.50
2022-11-15T11:28:09.420Z,37.10
2022-11-15T11:31:13.748Z,37.07
2022-11-15T11:34:07.228Z,36.03
2022-11-15T11:37:08.835Z,37.13
2022-11-15T11:39:59.148Z,39.67
2022-11-15T11:43:00.931Z,40.55
2022-11-15T11:45:51.972Z,38.90
2022-11-15T11:48:35.168Z,36.05
2022-11-15T11:51:24.639Z,40.63
2022-11-15T11:54:14.745Z,37.88
2022-11-15T11:56:47.837Z,41.90
2022-11-15T11:59:38.034Z,42.30
2022-11-15T12:02:19.899Z,43.13
2022-11-15T12:04:59.558Z,42.70
2022-11-15T12:07:36.561Z,38.25
2022-11-15T12:10:19.557Z,43.25
2022-11-15T12:13:05.891Z,38.97
2022-11-15T12:15:49.340Z,39.92
2022-11-15T12:18:22.611Z,39.90
2022-11-15T12:21:27.055Z,39.60
2022-11-15T12:24:08.349Z,40.17
2022-11-15T12:26:50.324Z,39.78
2022-11-15T12:29:39.703Z,38.20
2022-11-15T12:32:30.357Z,37.30
2022-11-15T12:35:07.628Z,38.67
2022-11-15T12:37:45.343Z,37.03
2022-11-15T12:40:26.819Z,39.47
2022-11-15T12:43:04.664Z,43.67
2022-11-15T12:45:40.635Z,41.17
2022-11-15T12:48:21.474Z,38.78
2022-11-15T12:50:57.539Z,37.75
2022-11-15T12:53:34.899Z,42.03
2022-11-15T12:56:16.751Z,42.13
2022-11-15T12:58:53.726Z,42.80
2022-11-15T13:01:35.404Z,44.13
2022-11-15T13:04:26.087Z,39.92
2022-11-15T13:07:09.113Z,40.38
2022-11-15T13:09:44.011Z,42.28
2022-11-15T13:12:28.854Z,43.88
2022-11-15T13:15:13.615Z,55.58
2022-11-15T13:17:47.979Z,41.17
2022-11-15T13:20:28.127Z,40.43
2022-11-15T13:23:09.063Z,41.42
2022-11-15T13:25:50.063Z,40.28
2022-11-15T13:28:31.711Z,38.80
2022-11-15T13:31:24.168Z,45.38
2022-11-15T13:34:10.055Z,39.40
2022-11-15T13:36:52.262Z,41.13
2022-11-15T13:39:33.154Z,59.53
2022-11-15T13:42:19.806Z,42.92
2022-11-15T13:45:01.252Z,38.20
2022-11-15T13:47:34.366Z,39.58
2022-11-15T13:50:12.239Z,41.88
2022-11-15T13:52:47.501Z,41.33
2022-11-15T13:55:24.178Z,40.45
2022-11-15T13:58:00.465Z,40.85
2022-11-15T14:00:48.786Z,46.17
2022-11-15T14:03:26.714Z,41.13
2022-11-15T14:06:08.922Z,41.03
2022-11-15T14:08:43.734Z,41.03
2022-11-15T14:11:19.899Z,38.63
2022-11-15T14:14:09.291Z,38.63
2022-11-15T14:16:45.775Z,41.13
2022-11-15T14:19:22.579Z,38.00
2022-11-15T14:22:22.378Z,38.63
2022-11-15T14:25:21.815Z,41.15
2022-11-15T14:28:25.915Z,39.70
2022-11-15T14:31:01.586Z,43.92
2022-11-15T14:33:37.116Z,39.95
2022-11-15T14:36:25.757Z,38.60
2022-11-15T14:38:59.011Z,43.80
2022-11-15T14:41:39.828Z,37.72
2022-11-15T14:44:13.586Z,33.97
2022-11-15T14:46:46.513Z,34.90
2022-11-15T14:49:19.363Z,31.98
2022-11-15T14:51:52.979Z,33.90
2022-11-15T14:54:27.087Z,32.75
2022-11-15T14:57:01.539Z,30.50
2022-11-15T14:59:34.509Z,32.03
2022-11-15T15:02:25.481Z,31.08
2022-11-15T15:05:02.501Z,43.67
2022-11-15T15:07:36.750Z,36.03
2022-11-15T15:10:38.174Z,31.10
2022-11-15T15:13:03.558Z,32.85
2022-11-15T15:15:39.082Z,28.92
2022-11-15T15:18:12.890Z,26.38
2022-11-15T15:20:56.955Z,28.63
2022-11-15T15:23:32.584Z,27.73
2022-11-15T15:26:05.621Z,28.40
2022-11-15T15:28:40.100Z,29.05
2022-11-15T15:31:14.511Z,29.20
2022-11-15T15:33:48.030Z,29.77
2022-11-15T15:36:24.269Z,29.98
2022-11-15T15:38:57.193Z,28.95
2022-11-15T15:41:30.928Z,28.25
2022-11-15T15:44:03.913Z,27.58
2022-11-15T15:46:36.649Z,27.85
2022-11-15T15:49:11.689Z,28.95
2022-11-15T15:51:44.997Z,29.75
2022-11-15T15:54:17.895Z,29.40
2022-11-15T15:56:55.954Z,30.33
2022-11-15T15:59:29.917Z,28.77
2022-11-15T16:02:03.728Z,28.58
2022-11-15T16:04:36.620Z,28.50
2022-11-15T16:07:19.399Z,28.10
2022-11-15T16:10:03.297Z,28.10
2022-11-15T16:12:36.733Z,28.83
2022-11-15T16:15:10.334Z,28.98
2022-11-15T16:17:57.852Z,29.30
2022-11-15T16:20:34.200Z,30.40
2022-11-15T16:23:10.558Z,30.60
2022-11-15T16:25:47.840Z,30.05
2022-11-15T16:28:24.835Z,29.45
2022-11-15T16:31:04.939Z,30.77
2022-11-15T16:33:38.246Z,30.52
2022-11-15T16:36:30.835Z,31.08
2022-11-15T16:39:05.429Z,31.60
2022-11-15T16:41:38.382Z,32.25
2022-11-15T16:44:11.290Z,30.88
2022-11-15T16:46:46.385Z,35.08
2022-11-15T16:49:21.715Z,31.75
2022-11-15T16:51:56.029Z,32.97
2022-11-15T16:54:28.899Z,33.65
2022-11-15T16:57:02.941Z,32.42
2022-11-15T16:59:39.225Z,32.22
2022-11-15T17:02:14.992Z,32.88
2022-11-15T17:04:48.515Z,34.25
2022-11-15T17:07:22.663Z,32.97
2022-11-15T17:12:31.444Z,34.28
2022-11-15T17:15:04.985Z,39.03
2022-11-15T17:17:38.185Z,32.58
2022-11-15T17:20:18.406Z,32.58
2022-11-15T17:22:53.186Z,34.80
2022-11-15T17:25:26.049Z,34.13
2022-11-15T17:27:59.066Z,35.53
2022-11-15T17:30:31.888Z,35.17
2022-11-15T17:33:05.656Z,34.25
2022-11-15T17:35:38.588Z,33.53
2022-11-15T17:38:12.998Z,34.28
2022-11-15T17:40:46.261Z,34.28
2022-11-15T17:43:19.102Z,34.28
2022-11-15T17:45:51.906Z,38.85
2022-11-15T17:48:25.049Z,36.15
2022-11-15T17:51:02.004Z,33.17
2022-11-15T17:53:37.852Z,34.83
2022-11-15T17:56:14.430Z,32.00
2022-11-15T17:58:51.551Z,37.78
2022-11-15T18:01:27.627Z,37.58
2022-11-15T18:04:02.903Z,35.97
2022-11-15T18:06:36.701Z,36.05
2022-11-15T18:09:09.652Z,35.70
2022-11-15T18:11:46.995Z,37.70
2022-11-15T18:14:21.356Z,35.85
2022-11-15T18:16:55.343Z,36.78
2022-11-15T18:19:28.891Z,36.85
2022-11-15T18:22:01.946Z,36.10
2022-11-15T18:24:39.205Z,37.03
2022-11-15T18:27:12.261Z,37.25
2022-11-15T18:29:45.247Z,34.25
2022-11-15T18:32:18.469Z,35.53
2022-11-15T18:34:51.868Z,41.30
2022-11-15T18:37:26.343Z,38.72
2022-11-15T18:39:59.620Z,45.03
2022-11-15T18:42:33.497Z,36.40
2022-11-15T18:45:07.084Z,36.67
2022-11-15T18:47:41.119Z,33.45
2022-11-15T18:50:14.026Z,34.28
2022-11-15T18:52:46.773Z,37.63
2022-11-15T18:55:19.889Z,34.45
2022-11-15T18:57:52.885Z,36.63
2022-11-15T19:00:27.138Z,37.10
2022-11-15T19:03:00.102Z,37.85
2022-11-15T19:05:33.081Z,38.30
2022-11-15T19:08:06.595Z,37.38
2022-11-15T19:10:39.470Z,37.65
2022-11-15T19:13:12.289Z,39.15
2022-11-15T19:15:45.190Z,38.17
2022-11-15T19:18:18.089Z,37.15
2022-11-15T19:20:51.489Z,35.42
2022-11-15T19:23:24.896Z,48.55
2022-11-15T19:25:59.848Z,35.40
2022-11-15T19:28:33.816Z,36.22
2022-11-15T19:31:08.463Z,45.33
2022-11-15T19:33:43.677Z,46.15
2022-11-15T19:36:19.757Z,36.00
2022-11-15T19:38:53.758Z,38.35
2022-11-15T19:41:27.485Z,42.17
2022-11-15T19:44:00.421Z,42.08
2022-11-15T19:46:33.408Z,38.90
2022-11-15T19:49:08.158Z,40.83
2022-11-15T19:51:42.927Z,39.80
2022-11-15T19:54:17.454Z,38.28
2022-11-15T19:56:52.552Z,40.17
2022-11-15T19:59:25.757Z,39.75
2022-11-15T20:01:58.644Z,45.80
2022-11-15T20:04:31.401Z,39.10
2022-11-15T20:07:04.311Z,37.95
2022-11-15T20:09:38.252Z,37.10
2022-11-15T20:12:11.160Z,36.67
2022-11-15T20:14:46.446Z,38.28
2022-11-15T20:19:52.050Z,37.17
2022-11-15T20:22:26.021Z,38.75
2022-11-15T20:24:58.847Z,40.53
2022-11-15T20:27:31.738Z,42.00
2022-11-15T20:30:05.228Z,45.83
2022-11-15T20:32:38.521Z,42.30
2022-11-15T20:35:11.402Z,43.10
2022-11-15T20:37:44.735Z,41.80
2022-11-15T20:40:18.099Z,44.38
2022-11-15T20:42:55.468Z,42.08
2022-11-15T20:45:28.314Z,40.67
2022-11-15T20:48:01.582Z,41.85
2022-11-15T20:50:43.292Z,42.13
2022-11-15T20:53:19.269Z,41.92
2022-11-15T20:55:52.630Z,40.25
2022-11-15T20:58:30.840Z,41.47
2022-11-15T21:01:07.246Z,42.80
2022-11-15T21:03:40.203Z,42.28
2022-11-15T21:06:13.483Z,41.17
2022-11-15T21:09:06.723Z,41.25
2022-11-15T21:11:55.775Z,40.92
2022-11-15T21:14:28.996Z,40.95
2022-11-15T21:17:01.771Z,45.92
2022-11-15T21:19:36.950Z,44.30
2022-11-15T21:22:14.317Z,42.40
2022-11-15T21:24:47.161Z,43.05
2022-11-15T21:27:19.959Z,42.03
2022-11-15T21:29:52.812Z,43.33
2022-11-15T21:32:25.726Z,39.80
2022-11-15T21:35:00.353Z,41.92
2022-11-15T21:37:33.116Z,45.63
2022-11-15T21:40:06.807Z,45.17
2022-11-15T21:42:39.649Z,44.50
2022-11-15T21:45:12.689Z,47.22
2022-11-15T21:47:46.634Z,41.88
2022-11-15T21:50:19.818Z,42.50
2022-11-15T21:52:53.059Z,43.85
2022-11-15T21:55:25.940Z,41.50
2022-11-15T21:57:58.788Z,41.67
2022-11-15T22:00:47.597Z,43.17
2022-11-15T22:03:20.505Z,42.08
2022-11-15T22:05:53.350Z,41.53
2022-11-15T22:08:26.533Z,43.08
2022-11-15T22:10:59.798Z,41.70
2022-11-15T22:13:32.563Z,43.03
2022-11-15T22:16:05.737Z,41.08
2022-11-15T22:18:39.067Z,38.90
2022-11-15T22:21:14.887Z,41.13
2022-11-15T22:23:47.696Z,39.25
2022-11-15T22:26:23.783Z,40.72
2022-11-15T22:28:57.354Z,39.50
2022-11-15T22:31:30.687Z,38.95
2022-11-15T22:34:04.040Z,38.92
2022-11-15T22:36:58.338Z,37.22
2022-11-15T22:39:29.927Z,38.78
2022-11-15T22:42:02.714Z,38.42
2022-11-15T22:44:35.466Z,39.55
2022-11-15T22:47:08.455Z,40.90
2022-11-15T22:49:42.599Z,40.45
2022-11-15T22:52:15.432Z,41.47
2022-11-15T22:54:48.330Z,39.63
2022-11-15T22:57:21.288Z,38.45
2022-11-15T22:59:54.128Z,39.05
2022-11-15T23:02:27.564Z,40.88
2022-11-15T23:05:00.265Z,38.08
2022-11-15T23:07:35.334Z,39.10
2022-11-15T23:10:23.917Z,38.15
2022-11-15T23:13:18.943Z,37.95
2022-11-15T23:16:08.412Z,35.83
2022-11-15T23:18:42.549Z,37.00
2022-11-15T23:21:34.104Z,39.45
2022-11-15T23:24:07.431Z,35.00
2022-11-15T23:26:41.113Z,37.63
2022-11-15T23:29:16.709Z,39.92
2022-11-15T23:32:05.237Z,37.33
2022-11-15T23:34:40.945Z,37.33
2022-11-15T23:37:15.734Z,38.78
2022-11-15T23:39:48.501Z,36.75
2022-11-15T23:42:21.224Z,38.50
2022-11-15T23:44:53.976Z,40.08
2022-11-15T23:47:26.692Z,40.45
2022-11-15T23:49:59.441Z,39.75
2022-11-15T23:52:32.077Z,41.35
2022-11-15T23:55:05.242Z,41.38
2022-11-15T23:57:38.144Z,39.88
